Time;durP1;ratioP1;P1;durP2;ratioP2;P2;SDS_P1;SDS_P2;PMS_P1;PMS_P2;Temp;Humidity;BMP_temperature;BMP_pressure;BME280_temperature;BME280_humidity;BME280_pressure;Samples;Min_cycle;Max_cycle;Signal;HPM_P1;HPM_P2
2022/01/17 00:01:05;;;;;;;;;;;21.70;44.90;;;;;;5135332;27;19927;-42
2022/01/17 00:03:32;;;;;;;;;;;21.70;44.80;;;;;;5134604;27;19923;-42
2022/01/17 00:05:59;;;;;;;;;;;21.70;44.90;;;;;;5133817;27;20390;-43
2022/01/17 00:08:26;;;;;;;;;;;21.70;44.80;;;;;;5135266;27;19981;-42
2022/01/17 00:10:53;;;;;;;;;;;21.70;44.90;;;;;;5135205;27;19931;-41
2022/01/17 00:13:28;;;;;;;;;;;21.70;44.80;;;;;;5135183;27;19952;-41
2022/01/17 00:16:08;;;;;;;;;;;21.70;44.80;;;;;;5135076;27;19972;-43
2022/01/17 00:21:05;;;;;;;;;;;21.70;44.80;;;;;;5132376;27;19938;-42
2022/01/17 00:23:33;;;;;;;;;;;21.70;44.80;;;;;;5113914;28;19924;-40
2022/01/17 00:26:00;;;;;;;;;;;21.70;44.80;;;;;;5114187;28;19967;-43
2022/01/17 00:28:27;;;;;;;;;;;21.70;44.80;;;;;;5114167;28;19924;-41
2022/01/17 00:30:54;;;;;;;;;;;21.70;44.80;;;;;;5096419;28;20341;-42
2022/01/17 00:33:21;;;;;;;;;;;21.70;44.90;;;;;;5123933;28;19923;-47
2022/01/17 00:35:48;;;;;;;;;;;21.70;44.80;;;;;;5134555;28;20039;-47
2022/01/17 00:38:15;;;;;;;;;;;21.70;44.90;;;;;;5133933;28;19977;-41
2022/01/17 00:40:42;;;;;;;;;;;21.70;44.90;;;;;;5134576;28;19924;-51
2022/01/17 00:43:12;;;;;;;;;;;21.70;44.90;;;;;;5116764;28;19973;-51
2022/01/17 00:45:43;;;;;;;;;;;21.70;44.90;;;;;;5116410;28;19931;-51
2022/01/17 00:48:11;;;;;;;;;;;21.70;44.90;;;;;;5126973;28;19924;-49
2022/01/17 00:50:39;;;;;;;;;;;21.70;44.90;;;;;;5114265;28;19923;-48
2022/01/17 00:53:06;;;;;;;;;;;21.70;44.90;;;;;;5128946;28;20010;-48
2022/01/17 00:55:35;;;;;;;;;;;21.70;44.90;;;;;;5134356;28;20367;-47
2022/01/17 00:58:02;;;;;;;;;;;21.70;44.90;;;;;;5134782;27;19924;-45
2022/01/17 01:00:29;;;;;;;;;;;21.70;44.90;;;;;;5120388;27;19924;-43
2022/01/17 01:02:57;;;;;;;;;;;21.70;44.90;;;;;;5119444;27;19923;-46
2022/01/17 01:05:24;;;;;;;;;;;21.70;45.00;;;;;;5138390;27;19969;-44
2022/01/17 01:07:53;;;;;;;;;;;21.70;45.00;;;;;;5137865;27;19923;-44
2022/01/17 01:10:21;;;;;;;;;;;21.70;45.00;;;;;;5120909;27;19924;-41
2022/01/17 01:12:49;;;;;;;;;;;21.70;45.00;;;;;;5138601;27;19927;-45
2022/01/17 01:18:38;;;;;;;;;;;21.70;45.00;;;;;;5137501;27;20014;-44
2022/01/17 01:29:10;;;;;;;;;;;21.60;44.90;;;;;;5138332;27;20275;-42
2022/01/17 01:31:44;;;;;;;;;;;21.60;44.90;;;;;;5137934;27;19976;-41
2022/01/17 01:34:12;;;;;;;;;;;21.60;44.90;;;;;;5137485;27;19923;-44
2022/01/17 01:36:41;;;;;;;;;;;21.60;44.90;;;;;;5137962;27;19995;-44
2022/01/17 01:39:09;;;;;;;;;;;21.60;45.00;;;;;;5117316;27;19928;-45
2022/01/17 01:41:42;;;;;;;;;;;21.60;44.90;;;;;;5117488;28;20014;-41
2022/01/17 01:44:16;;;;;;;;;;;21.60;45.00;;;;;;5099447;28;19924;-47
2022/01/17 01:46:44;;;;;;;;;;;21.60;45.00;;;;;;5117426;28;20310;-43
2022/01/17 01:49:12;;;;;;;;;;;21.60;45.00;;;;;;5116406;28;19924;-44
2022/01/17 01:51:39;;;;;;;;;;;21.60;45.00;;;;;;5098792;28;19924;-48
2022/01/17 01:54:07;;;;;;;;;;;21.60;45.00;;;;;;5135116;27;19971;-43
2022/01/17 01:56:38;;;;;;;;;;;21.60;45.00;;;;;;5137698;27;19923;-42
2022/01/17 01:59:06;;;;;;;;;;;21.60;45.00;;;;;;5137394;27;20431;-48
2022/01/17 02:01:33;;;;;;;;;;;21.60;45.00;;;;;;5137326;27;19927;-45
2022/01/17 02:04:01;;;;;;;;;;;21.60;45.00;;;;;;5130099;27;19923;-42
2022/01/17 02:06:28;;;;;;;;;;;21.60;45.00;;;;;;5098612;28;20036;-44
2022/01/17 02:08:55;;;;;;;;;;;21.60;45.00;;;;;;5132308;27;19945;-44
2022/01/17 02:11:22;;;;;;;;;;;21.60;45.00;;;;;;5118288;27;19923;-42
2022/01/17 02:13:50;;;;;;;;;;;21.60;45.00;;;;;;5137120;27;20014;-43
2022/01/17 02:16:21;;;;;;;;;;;21.60;45.00;;;;;;5137332;27;19923;-48
2022/01/17 02:18:49;;;;;;;;;;;21.60;45.00;;;;;;5136593;27;19992;-40
2022/01/17 02:21:20;;;;;;;;;;;21.60;45.00;;;;;;5136968;27;20442;-44
2022/01/17 02:23:50;;;;;;;;;;;21.60;45.00;;;;;;5135492;27;20444;-43
2022/01/17 02:26:17;;;;;;;;;;;21.60;45.00;;;;;;5136843;27;19968;-45
2022/01/17 02:28:48;;;;;;;;;;;21.60;45.00;;;;;;5136846;27;19923;-44
2022/01/17 02:31:17;;;;;;;;;;;21.60;45.00;;;;;;5136786;27;19931;-44
2022/01/17 02:33:44;;;;;;;;;;;21.60;45.00;;;;;;5136254;27;20026;-43
2022/01/17 02:36:11;;;;;;;;;;;21.50;45.00;;;;;;5136573;27;19979;-42
2022/01/17 02:38:39;;;;;;;;;;;21.50;45.00;;;;;;5117831;27;19951;-45
2022/01/17 02:41:06;;;;;;;;;;;21.60;45.10;;;;;;5136608;27;19927;-43
2022/01/17 02:43:33;;;;;;;;;;;21.50;45.00;;;;;;5136518;27;19934;-41
2022/01/17 02:48:29;;;;;;;;;;;21.60;45.10;;;;;;5136481;27;19930;-45
2022/01/17 02:50:57;;;;;;;;;;;21.50;45.00;;;;;;5135633;27;19923;-43
2022/01/17 02:53:25;;;;;;;;;;;21.50;45.00;;;;;;5134972;27;19923;-42
2022/01/17 02:55:56;;;;;;;;;;;21.50;45.00;;;;;;5118107;27;19924;-44
2022/01/17 02:58:26;;;;;;;;;;;21.50;45.00;;;;;;5136249;27;20340;-44
2022/01/17 03:00:54;;;;;;;;;;;21.50;45.00;;;;;;5136179;27;20027;-43
2022/01/17 03:03:22;;;;;;;;;;;21.50;45.00;;;;;;5136477;27;19930;-41
2022/01/17 03:05:50;;;;;;;;;;;21.50;45.10;;;;;;5135667;27;20350;-42
2022/01/17 03:08:18;;;;;;;;;;;21.50;45.00;;;;;;5116940;27;19930;-44
2022/01/17 03:10:48;;;;;;;;;;;21.50;45.00;;;;;;5136300;27;19963;-42
2022/01/17 03:13:19;;;;;;;;;;;21.50;45.10;;;;;;5135987;27;20378;-43
2022/01/17 03:15:53;;;;;;;;;;;21.50;45.10;;;;;;5117754;27;19962;-43
2022/01/17 03:18:20;;;;;;;;;;;21.50;45.10;;;;;;5135913;27;19924;-42
2022/01/17 03:20:47;;;;;;;;;;;21.50;45.10;;;;;;5119392;27;19966;-43
2022/01/17 03:23:14;;;;;;;;;;;21.50;45.10;;;;;;5116617;27;19934;-42
2022/01/17 03:25:41;;;;;;;;;;;21.50;45.10;;;;;;5135701;27;20010;-41
2022/01/17 03:28:08;;;;;;;;;;;21.50;45.10;;;;;;5135653;27;19976;-41
2022/01/17 03:30:36;;;;;;;;;;;21.50;45.10;;;;;;5136474;27;19976;-42
2022/01/17 03:33:04;;;;;;;;;;;21.50;45.10;;;;;;5135548;27;20021;-42
2022/01/17 03:35:31;;;;;;;;;;;21.50;45.10;;;;;;5134788;27;20415;-42
2022/01/17 03:37:59;;;;;;;;;;;21.50;45.10;;;;;;5134828;27;20362;-43
2022/01/17 03:40:26;;;;;;;;;;;21.50;45.10;;;;;;5135446;27;20312;-41
2022/01/17 03:42:53;;;;;;;;;;;21.50;45.10;;;;;;5135337;27;19934;-47
2022/01/17 03:45:20;;;;;;;;;;;21.50;45.20;;;;;;5135659;27;19967;-50
2022/01/17 03:47:48;;;;;;;;;;;21.50;45.20;;;;;;5135590;27;19958;-50
2022/01/17 03:50:16;;;;;;;;;;;21.50;45.20;;;;;;5134850;27;19985;-48
2022/01/17 03:52:43;;;;;;;;;;;21.50;45.20;;;;;;5134895;27;19972;-46
2022/01/17 03:55:12;;;;;;;;;;;21.50;45.20;;;;;;5134422;27;20009;-48
2022/01/17 03:57:39;;;;;;;;;;;21.40;45.10;;;;;;5135332;27;19923;-46
2022/01/17 04:00:07;;;;;;;;;;;21.40;45.10;;;;;;5135354;27;20099;-46
2022/01/17 04:02:34;;;;;;;;;;;21.40;45.20;;;;;;5135030;27;19924;-43
2022/01/17 04:05:02;;;;;;;;;;;21.40;45.20;;;;;;5134608;27;19923;-46
2022/01/17 04:07:29;;;;;;;;;;;21.40;45.20;;;;;;5135340;27;20271;-42
2022/01/17 04:09:55;;;;;;;;;;;21.40;45.20;;;;;;5133840;27;19924;-45
2022/01/17 04:12:22;;;;;;;;;;;21.40;45.20;;;;;;5134906;27;19923;-42
2022/01/17 04:14:54;;;;;;;;;;;21.40;45.20;;;;;;5134887;27;20409;-42
2022/01/17 04:17:26;;;;;;;;;;;21.40;45.20;;;;;;5134824;27;19953;-43
2022/01/17 04:19:59;;;;;;;;;;;21.40;45.10;;;;;;5134367;27;19930;-47
2022/01/17 04:22:26;;;;;;;;;;;21.40;45.20;;;;;;5134858;27;19962;-40
2022/01/17 04:24:53;;;;;;;;;;;21.40;45.20;;;;;;5133888;27;19931;-43
2022/01/17 04:27:20;;;;;;;;;;;21.40;45.20;;;;;;5134733;27;20014;-43
2022/01/17 04:29:47;;;;;;;;;;;21.40;45.20;;;;;;5116906;28;19978;-41
2022/01/17 04:32:14;;;;;;;;;;;21.40;45.20;;;;;;5134962;28;19923;-42
2022/01/17 04:34:42;;;;;;;;;;;21.40;45.20;;;;;;5140575;27;19923;-42
2022/01/17 04:37:09;;;;;;;;;;;21.40;45.20;;;;;;5140705;27;19927;-47
2022/01/17 04:39:36;;;;;;;;;;;21.40;45.20;;;;;;5140719;27;19930;-43
2022/01/17 04:42:10;;;;;;;;;;;21.40;45.20;;;;;;5141474;27;19976;-40
2022/01/17 04:47:24;;;;;;;;;;;21.40;45.20;;;;;;5126396;27;20347;-41
2022/01/17 04:49:51;;;;;;;;;;;21.40;45.20;;;;;;5141381;27;20292;-41
2022/01/17 04:52:18;;;;;;;;;;;21.40;45.20;;;;;;5140330;27;19927;-41
2022/01/17 04:54:52;;;;;;;;;;;21.40;45.20;;;;;;5141098;27;19929;-41
2022/01/17 04:57:21;;;;;;;;;;;21.40;45.20;;;;;;5141644;27;19927;-42
2022/01/17 04:59:48;;;;;;;;;;;21.40;45.20;;;;;;5141632;27;19973;-42
2022/01/17 05:02:16;;;;;;;;;;;21.40;45.20;;;;;;5141277;27;20017;-42
2022/01/17 05:04:46;;;;;;;;;;;21.40;45.20;;;;;;5142468;27;20045;-41
2022/01/17 05:07:14;;;;;;;;;;;21.40;45.20;;;;;;5140577;27;19933;-42
2022/01/17 05:09:43;;;;;;;;;;;21.40;45.20;;;;;;5140168;27;19923;-40
2022/01/17 05:12:10;;;;;;;;;;;21.40;45.20;;;;;;5141517;27;19961;-42
2022/01/17 05:14:43;;;;;;;;;;;21.40;45.20;;;;;;5141193;27;19959;-43
2022/01/17 05:17:59;;;;;;;;;;;21.40;45.20;;;;;;5141437;27;19923;-40
2022/01/17 05:19:58;;;;;;;;;;;21.40;45.20;;;;;;5134070;27;19924;-42
2022/01/17 05:22:31;;;;;;;;;;;21.30;45.20;;;;;;5123229;27;20018;-42
2022/01/17 05:25:03;;;;;;;;;;;21.30;45.20;;;;;;5126736;27;19948;-43
2022/01/17 05:27:30;;;;;;;;;;;21.30;45.20;;;;;;5141065;27;20394;-42
2022/01/17 05:29:56;;;;;;;;;;;21.30;45.20;;;;;;5141024;27;20462;-42
2022/01/17 05:32:23;;;;;;;;;;;21.30;45.20;;;;;;5141009;27;19970;-41
2022/01/17 05:34:50;;;;;;;;;;;21.30;45.20;;;;;;5141007;27;19923;-42
2022/01/17 05:37:17;;;;;;;;;;;21.30;45.20;;;;;;5122217;27;19972;-42
2022/01/17 05:39:44;;;;;;;;;;;21.30;45.80;;;;;;5105315;27;19981;-41
2022/01/17 05:42:17;;;;;;;;;;;21.30;45.20;;;;;;5140944;27;19924;-41
2022/01/17 05:44:46;;;;;;;;;;;21.30;45.20;;;;;;5139933;27;19923;-42
2022/01/17 05:47:13;;;;;;;;;;;21.30;45.20;;;;;;5138784;27;19951;-42
2022/01/17 05:49:41;;;;;;;;;;;21.30;45.20;;;;;;5137628;27;20014;-40
2022/01/17 05:52:09;;;;;;;;;;;21.30;45.20;;;;;;5136501;27;19927;-41
2022/01/17 05:54:37;;;;;;;;;;;21.30;45.20;;;;;;5136432;27;20021;-41
2022/01/17 05:57:04;;;;;;;;;;;21.30;45.20;;;;;;5137391;27;19962;-41
2022/01/17 05:59:31;;;;;;;;;;;21.30;45.20;;;;;;5137738;27;20339;-42
2022/01/17 06:01:58;;;;;;;;;;;21.30;45.20;;;;;;5137676;27;19923;-42
2022/01/17 06:04:25;;;;;;;;;;;21.30;45.20;;;;;;5137326;27;19949;-41
2022/01/17 06:06:52;;;;;;;;;;;21.30;45.20;;;;;;5136805;27;20014;-41
2022/01/17 06:09:19;;;;;;;;;;;21.30;45.20;;;;;;5137549;27;19924;-42
2022/01/17 06:11:46;;;;;;;;;;;21.30;45.20;;;;;;5136059;27;20370;-40
2022/01/17 06:14:17;;;;;;;;;;;21.30;45.20;;;;;;5137424;27;20077;-40
2022/01/17 06:16:44;;;;;;;;;;;21.30;45.20;;;;;;5137044;27;20022;-42
2022/01/17 06:19:12;;;;;;;;;;;21.30;45.20;;;;;;5136800;27;20462;-42
2022/01/17 06:21:39;;;;;;;;;;;21.30;45.20;;;;;;5135988;27;19966;-42
2022/01/17 06:24:06;;;;;;;;;;;21.30;45.20;;;;;;5137746;27;20010;-42
2022/01/17 06:26:33;;;;;;;;;;;21.30;45.30;;;;;;5135947;27;20402;-42
2022/01/17 06:29:00;;;;;;;;;;;21.30;45.20;;;;;;5136782;27;19923;-41
2022/01/17 06:31:29;;;;;;;;;;;21.30;45.20;;;;;;5136756;27;19924;-41
2022/01/17 06:33:56;;;;;;;;;;;21.30;45.20;;;;;;5136704;27;20409;-42
2022/01/17 06:36:23;;;;;;;;;;;21.30;45.20;;;;;;5135858;27;19970;-42
2022/01/17 06:38:50;;;;;;;;;;;21.30;45.20;;;;;;5136583;27;19935;-42
2022/01/17 06:41:18;;;;;;;;;;;21.30;45.20;;;;;;5125054;27;19924;-43
2022/01/17 06:43:45;;;;;;;;;;;21.30;45.20;;;;;;5115944;28;20398;-41
2022/01/17 06:46:14;;;;;;;;;;;21.30;45.30;;;;;;5116242;28;19924;-45
2022/01/17 06:48:42;;;;;;;;;;;21.30;45.30;;;;;;5115782;28;19928;-42
2022/01/17 06:51:09;;;;;;;;;;;21.30;45.30;;;;;;5115723;28;19929;-42
2022/01/17 06:53:36;;;;;;;;;;;21.30;45.30;;;;;;5133761;27;19989;-47
2022/01/17 06:56:04;;;;;;;;;;;21.20;45.20;;;;;;5116749;27;19927;-39
2022/01/17 06:58:31;;;;;;;;;;;21.30;45.30;;;;;;5136408;27;20323;-40
2022/01/17 07:00:58;;;;;;;;;;;21.30;45.30;;;;;;5136420;27;20330;-42
2022/01/17 07:03:25;;;;;;;;;;;21.30;45.30;;;;;;5136484;27;19948;-42
2022/01/17 07:05:52;;;;;;;;;;;21.30;45.30;;;;;;5136318;27;19981;-40
2022/01/17 07:08:19;;;;;;;;;;;21.30;45.30;;;;;;5135506;27;20398;-42
2022/01/17 07:10:46;;;;;;;;;;;21.30;45.30;;;;;;5134923;27;19980;-41
2022/01/17 07:13:13;;;;;;;;;;;21.30;45.30;;;;;;5136271;27;20014;-40
2022/01/17 07:15:40;;;;;;;;;;;21.20;45.20;;;;;;5135845;27;20375;-41
2022/01/17 07:18:07;;;;;;;;;;;21.30;45.30;;;;;;5135921;27;19972;-42
2022/01/17 07:20:34;;;;;;;;;;;21.20;45.20;;;;;;5135600;27;20354;-40
2022/01/17 07:23:01;;;;;;;;;;;21.20;45.20;;;;;;5134663;27;19945;-41
2022/01/17 07:25:28;;;;;;;;;;;21.20;45.20;;;;;;5136014;27;19976;-42
2022/01/17 07:27:57;;;;;;;;;;;21.20;45.30;;;;;;5134632;27;19978;-43
2022/01/17 07:30:26;;;;;;;;;;;21.20;45.20;;;;;;5135891;27;19978;-42
2022/01/17 07:32:53;;;;;;;;;;;21.20;45.30;;;;;;5135561;27;20380;-41
2022/01/17 07:35:20;;;;;;;;;;;21.20;45.30;;;;;;5135504;27;20367;-40
2022/01/17 07:37:47;;;;;;;;;;;21.20;45.20;;;;;;5134632;27;19923;-43
2022/01/17 07:40:13;;;;;;;;;;;21.20;45.20;;;;;;5135751;27;19924;-40
2022/01/17 07:42:41;;;;;;;;;;;21.20;45.30;;;;;;5134250;27;19969;-42
2022/01/17 07:45:12;;;;;;;;;;;21.20;45.20;;;;;;5139972;27;19934;-43
2022/01/17 07:47:45;;;;;;;;;;;21.30;45.30;;;;;;5120525;27;19928;-44
2022/01/17 07:50:14;;;;;;;;;;;21.20;45.20;;;;;;5135991;27;19930;-45
2022/01/17 07:52:42;;;;;;;;;;;21.20;45.20;;;;;;5134353;27;19923;-48
2022/01/17 07:55:10;;;;;;;;;;;21.20;45.20;;;;;;5135217;27;19974;-43
2022/01/17 07:57:38;;;;;;;;;;;21.20;45.20;;;;;;5133940;27;19923;-43
2022/01/17 08:00:06;;;;;;;;;;;21.20;45.20;;;;;;5135048;27;20014;-41
2022/01/17 08:02:34;;;;;;;;;;;21.20;45.20;;;;;;5135017;27;19931;-41
2022/01/17 08:05:02;;;;;;;;;;;21.20;45.20;;;;;;5135298;27;19930;-41
2022/01/17 08:07:29;;;;;;;;;;;21.20;45.20;;;;;;5133088;27;19927;-44
2022/01/17 08:09:57;;;;;;;;;;;21.20;45.20;;;;;;5114443;28;20027;-42
2022/01/17 08:12:24;;;;;;;;;;;21.20;45.20;;;;;;5125353;27;19952;-42
2022/01/17 08:14:51;;;;;;;;;;;21.20;45.20;;;;;;5135187;27;20290;-43
2022/01/17 08:17:18;;;;;;;;;;;21.20;45.20;;;;;;5134798;27;19923;-41
2022/01/17 08:19:45;;;;;;;;;;;21.20;45.20;;;;;;5134821;27;20079;-42
2022/01/17 08:22:12;;;;;;;;;;;21.20;45.20;;;;;;5134505;27;19976;-41
2022/01/17 08:24:39;;;;;;;;;;;21.20;45.10;;;;;;5133934;27;20525;-42
2022/01/17 08:27:06;;;;;;;;;;;21.20;45.70;;;;;;5133639;27;20442;-42
2022/01/17 08:29:34;;;;;;;;;;;21.30;45.20;;;;;;5134943;27;19963;-41
2022/01/17 08:32:05;;;;;;;;;;;21.30;45.20;;;;;;5134631;28;19973;-41
2022/01/17 08:34:33;;;;;;;;;;;21.30;45.20;;;;;;5134980;28;19924;-44
2022/01/17 08:37:00;;;;;;;;;;;21.30;45.20;;;;;;5134783;28;19924;-43
2022/01/17 08:39:27;;;;;;;;;;;21.30;45.20;;;;;;5115690;28;20018;-43
2022/01/17 08:41:54;;;;;;;;;;;21.30;45.20;;;;;;5133479;28;19967;-41
2022/01/17 08:44:21;;;;;;;;;;;21.30;45.10;;;;;;5134801;28;19962;-41
2022/01/17 08:46:48;;;;;;;;;;;21.30;45.10;;;;;;5134524;28;20021;-42
2022/01/17 08:49:16;;;;;;;;;;;21.30;45.10;;;;;;5134831;28;19923;-42
2022/01/17 08:51:45;;;;;;;;;;;21.30;45.10;;;;;;5134141;28;20018;-43
2022/01/17 08:54:12;;;;;;;;;;;21.30;45.00;;;;;;5122210;28;19924;-40
2022/01/17 08:56:39;;;;;;;;;;;21.30;45.00;;;;;;5113937;28;19971;-39
2022/01/17 08:59:06;;;;;;;;;;;21.30;45.00;;;;;;5134351;28;19930;-42
2022/01/17 09:01:33;;;;;;;;;;;21.30;45.00;;;;;;5134434;28;20379;-40
2022/01/17 09:04:01;;;;;;;;;;;21.30;45.00;;;;;;5134381;28;20445;-46
2022/01/17 09:06:28;;;;;;;;;;;21.30;45.00;;;;;;5134665;28;20361;-39
2022/01/17 09:08:55;;;;;;;;;;;21.30;44.90;;;;;;5133546;28;20391;-40
2022/01/17 09:11:22;;;;;;;;;;;21.30;44.90;;;;;;5134582;28;20014;-41
2022/01/17 09:13:50;;;;;;;;;;;21.30;44.90;;;;;;5133306;28;19924;-40
2022/01/17 09:16:17;;;;;;;;;;;21.40;44.90;;;;;;5135030;28;19930;-46
2022/01/17 09:18:44;;;;;;;;;;;21.40;44.90;;;;;;5134448;28;20317;-47
2022/01/17 09:21:11;;;;;;;;;;;21.40;44.90;;;;;;5136266;27;20271;-47
2022/01/17 09:23:39;;;;;;;;;;;21.40;44.80;;;;;;5137314;27;19966;-43
2022/01/17 09:26:06;;;;;;;;;;;21.40;44.80;;;;;;5138006;27;20022;-40
2022/01/17 09:28:33;;;;;;;;;;;21.40;44.70;;;;;;5137240;27;19923;-40
2022/01/17 09:31:00;;;;;;;;;;;21.40;44.70;;;;;;5137735;27;19930;-41
2022/01/17 09:33:27;;;;;;;;;;;21.40;44.70;;;;;;5137808;27;19979;-40
2022/01/17 09:35:54;;;;;;;;;;;21.40;44.60;;;;;;5138114;27;19924;-40
2022/01/17 09:38:21;;;;;;;;;;;21.50;44.70;;;;;;5137357;27;19923;-40
2022/01/17 09:40:48;;;;;;;;;;;21.50;44.70;;;;;;5117342;28;19987;-39
2022/01/17 09:43:36;;;;;;;;;;;21.50;45.20;;;;;;5117162;27;20015;-41
2022/01/17 09:46:03;;;;;;;;;;;21.50;44.50;;;;;;5098891;28;19978;-41
2022/01/17 09:48:39;;;;;;;;;;;21.50;44.50;;;;;;5117395;28;19924;-40
2022/01/17 09:51:38;;;;;;;;;;;21.60;44.50;;;;;;5117244;28;20352;-39
2022/01/17 09:54:05;;;;;;;;;;;21.60;44.40;;;;;;5116518;28;20006;-41
2022/01/17 09:56:33;;;;;;;;;;;21.60;44.40;;;;;;5099140;28;20329;-42
2022/01/17 09:59:02;;;;;;;;;;;21.60;44.30;;;;;;5131279;27;19976;-42
2022/01/17 10:01:29;;;;;;;;;;;21.60;44.30;;;;;;5137362;27;19968;-43
2022/01/17 10:03:56;;;;;;;;;;;21.60;44.30;;;;;;5137320;27;19923;-41
2022/01/17 10:06:24;;;;;;;;;;;21.60;44.30;;;;;;5137259;27;19923;-45
2022/01/17 10:09:10;;;;;;;;;;;21.60;44.20;;;;;;5136423;27;20035;-44
2022/01/17 10:11:59;;;;;;;;;;;21.60;44.20;;;;;;5137208;27;19966;-39
2022/01/17 10:14:27;;;;;;;;;;;21.70;44.20;;;;;;5136370;27;19966;-43
2022/01/17 10:16:54;;;;;;;;;;;21.70;44.20;;;;;;5137416;27;19973;-40
2022/01/17 10:19:22;;;;;;;;;;;21.70;44.10;;;;;;5137048;27;19927;-42
2022/01/17 10:21:54;;;;;;;;;;;21.70;44.10;;;;;;5136313;27;20216;-41
2022/01/17 10:27:40;;;;;;;;;;;21.80;44.00;;;;;;5136998;27;19928;-41
2022/01/17 10:35:34;;;;;;;;;;;21.80;43.90;;;;;;5116266;28;19969;-41
2022/01/17 10:38:08;;;;;;;;;;;21.90;43.90;;;;;;5116116;28;19923;-41
2022/01/17 10:40:43;;;;;;;;;;;21.90;43.90;;;;;;5128949;27;19927;-41
2022/01/17 10:43:22;;;;;;;;;;;21.90;43.80;;;;;;5135766;27;19978;-42
2022/01/17 10:45:49;;;;;;;;;;;21.90;43.80;;;;;;5136859;27;19969;-40
2022/01/17 10:48:16;;;;;;;;;;;21.90;43.80;;;;;;5136812;27;20335;-42
2022/01/17 10:50:44;;;;;;;;;;;21.90;43.70;;;;;;5136469;27;19981;-42
2022/01/17 10:53:13;;;;;;;;;;;21.90;43.70;;;;;;5136396;27;19988;-49
2022/01/17 10:55:43;;;;;;;;;;;21.90;43.70;;;;;;5135852;27;19923;-45
2022/01/17 10:58:13;;;;;;;;;;;21.90;43.70;;;;;;5134997;27;20280;-42
2022/01/17 11:00:47;;;;;;;;;;;22.00;43.80;;;;;;5136410;27;20010;-43
2022/01/17 11:03:19;;;;;;;;;;;21.90;43.70;;;;;;5136374;27;20014;-42
2022/01/17 11:05:47;;;;;;;;;;;22.00;43.80;;;;;;5136129;27;20293;-41
2022/01/17 11:08:17;;;;;;;;;;;21.90;43.70;;;;;;5136069;27;19931;-40
2022/01/17 11:10:45;;;;;;;;;;;22.00;43.80;;;;;;5123710;27;20456;-46
2022/01/17 11:13:16;;;;;;;;;;;22.00;44.40;;;;;;5114938;28;19955;-41
2022/01/17 11:15:46;;;;;;;;;;;21.90;43.70;;;;;;5115589;28;20351;-48
2022/01/17 11:18:19;;;;;;;;;;;21.90;43.70;;;;;;5115318;28;20329;-43
2022/01/17 11:20:47;;;;;;;;;;;22.00;43.80;;;;;;5115252;28;19923;-46
2022/01/17 11:23:15;;;;;;;;;;;22.00;43.80;;;;;;5115264;28;20011;-43
2022/01/17 11:25:43;;;;;;;;;;;22.00;43.80;;;;;;5124618;27;19955;-51
2022/01/17 11:28:11;;;;;;;;;;;22.00;43.80;;;;;;5134781;27;19924;-42
2022/01/17 11:30:39;;;;;;;;;;;22.00;43.80;;;;;;5115211;28;19924;-43
2022/01/17 11:33:08;;;;;;;;;;;22.00;43.80;;;;;;5115045;28;19928;-44
2022/01/17 11:35:37;;;;;;;;;;;21.90;43.70;;;;;;5115347;28;20350;-42
2022/01/17 11:38:04;;;;;;;;;;;22.00;43.70;;;;;;5115210;28;19982;-44
2022/01/17 11:40:33;;;;;;;;;;;22.00;43.70;;;;;;5121439;27;19927;-42
2022/01/17 11:43:14;;;;;;;;;;;22.00;43.70;;;;;;5134610;27;19973;-44
2022/01/17 11:45:42;;;;;;;;;;;22.00;43.70;;;;;;5134344;27;19963;-43
2022/01/17 11:48:29;;;;;;;;;;;22.00;43.70;;;;;;5135296;27;19928;-43
2022/01/17 11:50:58;;;;;;;;;;;22.00;43.70;;;;;;5135597;27;19923;-45
2022/01/17 11:53:27;;;;;;;;;;;22.00;43.70;;;;;;5134951;27;19924;-46
2022/01/17 11:55:54;;;;;;;;;;;22.00;43.70;;;;;;5134440;27;20010;-46
2022/01/17 11:58:22;;;;;;;;;;;22.00;43.70;;;;;;5135404;27;20018;-43
2022/01/17 12:01:02;;;;;;;;;;;22.00;43.70;;;;;;5134001;27;19930;-44
2022/01/17 12:03:30;;;;;;;;;;;22.00;43.70;;;;;;5135691;27;19923;-40
2022/01/17 12:06:03;;;;;;;;;;;22.00;43.70;;;;;;5135610;27;20282;-40
2022/01/17 12:08:30;;;;;;;;;;;22.00;43.70;;;;;;5135284;27;20358;-47
2022/01/17 12:10:59;;;;;;;;;;;22.00;43.70;;;;;;5134167;27;19930;-50
2022/01/17 12:13:50;;;;;;;;;;;22.00;43.70;;;;;;5135235;27;20319;-48
2022/01/17 12:16:31;;;;;;;;;;;22.00;43.60;;;;;;5135232;27;19973;-44
2022/01/17 12:19:03;;;;;;;;;;;22.10;43.70;;;;;;5134621;27;19923;-44
2022/01/17 12:21:32;;;;;;;;;;;22.10;43.70;;;;;;5134705;27;20117;-44
2022/01/17 12:24:15;;;;;;;;;;;22.10;43.70;;;;;;5117039;27;19927;-40
2022/01/17 12:26:43;;;;;;;;;;;22.10;43.70;;;;;;5134104;27;19924;-39
2022/01/17 12:29:10;;;;;;;;;;;22.10;43.70;;;;;;5134017;27;19932;-43
2022/01/17 12:31:39;;;;;;;;;;;22.10;43.70;;;;;;5134750;27;19924;-41
2022/01/17 12:34:24;;;;;;;;;;;22.10;43.70;;;;;;5117015;28;19923;-45
2022/01/17 12:36:52;;;;;;;;;;;22.10;43.60;;;;;;5134684;28;19969;-44
2022/01/17 12:39:21;;;;;;;;;;;22.10;43.60;;;;;;5134878;28;19927;-42
2022/01/17 12:41:49;;;;;;;;;;;22.10;43.60;;;;;;5133868;28;20385;-39
2022/01/17 12:44:20;;;;;;;;;;;22.10;43.60;;;;;;5133764;28;19931;-41
2022/01/17 12:46:49;;;;;;;;;;;22.10;43.50;;;;;;5134592;28;19923;-39
2022/01/17 12:49:17;;;;;;;;;;;22.10;43.50;;;;;;5134903;28;20326;-44
2022/01/17 12:51:46;;;;;;;;;;;22.10;43.50;;;;;;5134564;28;19947;-41
2022/01/17 12:54:14;;;;;;;;;;;22.10;43.50;;;;;;5117061;27;19923;-42
2022/01/17 12:56:42;;;;;;;;;;;22.10;43.50;;;;;;5138177;27;19924;-39
2022/01/17 12:59:09;;;;;;;;;;;22.10;43.50;;;;;;5137905;27;19977;-40
2022/01/17 13:01:42;;;;;;;;;;;22.10;43.50;;;;;;5138436;27;19928;-43
2022/01/17 13:04:12;;;;;;;;;;;22.10;43.60;;;;;;5138580;27;20348;-41
2022/01/17 13:06:40;;;;;;;;;;;22.10;43.60;;;;;;5138505;27;19924;-41
2022/01/17 13:09:09;;;;;;;;;;;22.10;43.60;;;;;;5138638;27;20327;-41
2022/01/17 13:11:45;;;;;;;;;;;22.10;43.70;;;;;;5138014;27;20297;-41
2022/01/17 13:14:16;;;;;;;;;;;22.10;43.70;;;;;;5138361;27;19924;-40
2022/01/17 13:16:45;;;;;;;;;;;22.10;43.70;;;;;;5137729;27;19930;-40
2022/01/17 13:19:13;;;;;;;;;;;22.10;43.70;;;;;;5137997;27;19969;-40
2022/01/17 13:21:42;;;;;;;;;;;22.10;43.70;;;;;;5120022;27;20260;-39
2022/01/17 13:26:59;;;;;;;;;;;22.10;43.80;;;;;;5137367;27;19923;-45
2022/01/17 13:29:26;;;;;;;;;;;22.00;43.70;;;;;;5138274;27;20022;-42
2022/01/17 13:31:54;;;;;;;;;;;22.10;43.80;;;;;;5117157;28;20019;-41
2022/01/17 13:34:30;;;;;;;;;;;22.10;43.80;;;;;;5117420;28;20469;-40
2022/01/17 13:37:02;;;;;;;;;;;22.10;43.80;;;;;;5117228;28;20375;-41
2022/01/17 13:39:49;;;;;;;;;;;22.10;43.80;;;;;;5117201;28;19924;-40
2022/01/17 13:42:16;;;;;;;;;;;22.10;43.90;;;;;;5127532;27;19933;-41
2022/01/17 13:44:51;;;;;;;;;;;22.00;43.70;;;;;;5135824;27;20015;-47
2022/01/17 13:47:20;;;;;;;;;;;22.00;43.80;;;;;;5117983;27;19954;-42
2022/01/17 13:49:48;;;;;;;;;;;22.00;43.80;;;;;;5117092;28;20029;-42
2022/01/17 13:52:18;;;;;;;;;;;22.00;43.90;;;;;;5134088;27;19924;-40
2022/01/17 13:54:51;;;;;;;;;;;22.10;44.10;;;;;;5137558;27;19967;-38
2022/01/17 13:57:33;;;;;;;;;;;22.10;44.20;;;;;;5125344;27;19938;-40
2022/01/17 14:00:07;;;;;;;;;;;22.00;44.30;;;;;;5118227;27;19942;-39
2022/01/17 14:02:35;;;;;;;;;;;22.10;44.40;;;;;;5136414;27;19934;-39
2022/01/17 14:05:03;;;;;;;;;;;22.10;44.30;;;;;;5133528;27;19931;-43
2022/01/17 14:07:32;;;;;;;;;;;22.10;44.30;;;;;;5135750;27;19923;-41
2022/01/17 14:10:00;;;;;;;;;;;22.10;44.30;;;;;;5137249;27;19923;-43
2022/01/17 14:12:28;;;;;;;;;;;22.10;44.20;;;;;;5118181;27;19923;-44
2022/01/17 14:14:57;;;;;;;;;;;22.10;44.20;;;;;;5137098;27;19924;-42
2022/01/17 14:17:30;;;;;;;;;;;22.10;44.30;;;;;;5116031;28;19930;-40
2022/01/17 14:20:09;;;;;;;;;;;22.10;44.30;;;;;;5115893;28;19924;-41
2022/01/17 14:22:43;;;;;;;;;;;22.10;44.30;;;;;;5116500;28;19996;-39
2022/01/17 14:25:19;;;;;;;;;;;22.20;44.40;;;;;;5116409;28;19927;-40
2022/01/17 14:28:00;;;;;;;;;;;22.20;44.40;;;;;;5115699;27;19946;-48
2022/01/17 14:30:31;;;;;;;;;;;22.20;44.50;;;;;;5118234;27;20382;-45
2022/01/17 14:33:07;;;;;;;;;;;22.20;44.50;;;;;;5137092;27;19955;-45
2022/01/17 14:35:34;;;;;;;;;;;22.20;44.50;;;;;;5136788;27;20276;-47
2022/01/17 14:38:01;;;;;;;;;;;22.20;44.50;;;;;;5136845;27;19924;-46
2022/01/17 14:40:32;;;;;;;;;;;22.20;44.60;;;;;;5134729;27;19978;-40
2022/01/17 14:43:13;;;;;;;;;;;22.20;44.60;;;;;;5135298;27;19966;-40
2022/01/17 14:45:45;;;;;;;;;;;22.20;44.60;;;;;;5136185;27;19940;-41
2022/01/17 14:48:13;;;;;;;;;;;22.20;44.60;;;;;;5136616;27;19924;-40
2022/01/17 14:50:40;;;;;;;;;;;22.20;44.70;;;;;;5120593;27;19924;-38
2022/01/17 14:53:15;;;;;;;;;;;22.20;44.70;;;;;;5136313;27;20010;-42
2022/01/17 14:59:28;;;;;;;;;;;22.20;44.80;;;;;;5136636;27;19976;-43
2022/01/17 15:01:23;;;;;;;;;;;22.20;44.80;;;;;;5133451;27;20014;-42